Back to Top

Language: 

My Weather Underground Personal Weather Station Historical Data with Graphs...

Delerius Weather Station Historical Data
Daily Summary for January 24, 2017 Units:  Metric    English   Both
« Previous Day
Next Day »
Daily Weekly Monthly Yearly Custom
  High: Low: Average:
Temperature: 9.2 °C -2.8 °C 3.1 °C
Dew Point: 6.3 °C -3.2 °C 2.1 °C
Humidity: 98 % 81 % 93 %
Wind Speed: 9.7 km/h 0 km/h 1.4 km/h
Wind Gust: -1607.7 km/h - -
Wind:- - SSW
Pressure: 1025.6 hPa 1024.3 hPa -
Precipitation: 0.25 mm    
Historical Graphs
 
 
Tabular Data for January 24, 2017
Time Temperature Dew Point Pressure Wind Wind Speed Wind Gust Humidity Rainfall Rate (Hourly) solar Conditions
00:01 -0.7 °C -1.3 °C 1024.9 hPa Calm   -1607.7 km/h 96 % 0 mm 0 W/m2
00:06 -0.7 °C -1.3 °C 1024.9 hPa Calm   -1607.7 km/h 96 % 0 mm 0 W/m2
00:11 -0.7 °C -1.3 °C 1024.9 hPa Calm   -1607.7 km/h 96 % 0 mm 0 W/m2
00:16 -0.7 °C -1.3 °C 1024.9 hPa Calm   -1607.7 km/h 96 % 0 mm 0 W/m2
00:21 -0.7 °C -1.3 °C 1024.9 hPa Calm   -1607.7 km/h 96 % 0 mm 0 W/m2
00:26 -1.1 °C -1.6 °C 1024.9 hPa Calm   -1607.7 km/h 96 % 0 mm 0 W/m2
00:31 -1.1 °C -1.6 °C 1024.9 hPa Calm   -1607.7 km/h 96 % 0 mm 0 W/m2
00:36 -1.1 °C -1.6 °C 1024.9 hPa Calm   -1607.7 km/h 96 % 0 mm 0 W/m2
00:41 -1.3 °C -1.8 °C 1024.9 hPa Calm   -1607.7 km/h 96 % 0 mm 0 W/m2
00:46 -1.3 °C -1.8 °C 1024.9 hPa Calm   -1607.7 km/h 96 % 0 mm 0 W/m2
00:51 -1.3 °C -1.8 °C 1024.9 hPa Calm   -1607.7 km/h 96 % 0 mm 0 W/m2
00:56 -1.4 °C -2 °C 1024.9 hPa Calm   -1607.7 km/h 96 % 0 mm 0 W/m2
01:01 -1.4 °C -2 °C 1024.9 hPa Calm   -1607.7 km/h 96 % 0 mm 0 W/m2
01:06 -1.4 °C -2 °C 1024.9 hPa Calm   -1607.7 km/h 96 % 0 mm 0 W/m2
01:11 -1.6 °C -2.2 °C 1024.9 hPa Calm   -1607.7 km/h 96 % 0 mm 0 W/m2
01:16 -1.6 °C -2.2 °C 1024.9 hPa Calm   -1607.7 km/h 96 % 0 mm 0 W/m2
01:26 -1.7 °C -2.3 °C 1024.6 hPa Calm   -1607.7 km/h 96 % 0 mm 0 W/m2
01:31 -1.7 °C -2.3 °C 1024.6 hPa Calm   -1607.7 km/h 96 % 0 mm 0 W/m2
01:36 -1.7 °C -2.3 °C 1024.6 hPa Calm   -1607.7 km/h 96 % 0 mm 0 W/m2
01:41 -1.7 °C -2.1 °C 1024.6 hPa Calm   -1607.7 km/h 97 % 0 mm 0 W/m2
01:46 -1.7 °C -2.1 °C 1024.6 hPa Calm   -1607.7 km/h 97 % 0 mm 0 W/m2
01:51 -1.7 °C -2.1 °C 1024.6 hPa Calm   -1607.7 km/h 97 % 0 mm 0 W/m2
01:56 -1.5 °C -1.9 °C 1024.9 hPa Calm   -1607.7 km/h 97 % 0 mm 0 W/m2
02:01 -1.5 °C -1.9 °C 1024.9 hPa Calm   -1607.7 km/h 97 % 0 mm 0 W/m2
02:11 -1.8 °C -2.3 °C 1024.9 hPa Calm   -1607.7 km/h 96 % 0 mm 0 W/m2
02:16 -1.8 °C -2.3 °C 1024.9 hPa Calm   -1607.7 km/h 96 % 0 mm 0 W/m2
02:21 -1.8 °C -2.3 °C 1024.9 hPa Calm   -1607.7 km/h 96 % 0 mm 0 W/m2
02:26 -2.1 °C -2.7 °C 1024.6 hPa Calm   -1607.7 km/h 96 % 0 mm 0 W/m2
02:36 -2.1 °C -2.7 °C 1024.6 hPa Calm   -1607.7 km/h 96 % 0 mm 0 W/m2
02:41 -2.2 °C -2.7 °C 1024.6 hPa Calm   -1607.7 km/h 96 % 0 mm 0 W/m2
02:46 -2.2 °C -2.7 °C 1024.6 hPa Calm   -1607.7 km/h 96 % 0 mm 0 W/m2
02:51 -2.2 °C -2.7 °C 1024.6 hPa Calm   -1607.7 km/h 96 % 0 mm 0 W/m2
02:56 -2.3 °C -2.8 °C 1024.6 hPa Calm   -1607.7 km/h 96 % 0 mm 0 W/m2
03:01 -2.3 °C -2.8 °C 1024.6 hPa Calm   -1607.7 km/h 96 % 0 mm 0 W/m2
03:06 -2.3 °C -2.8 °C 1024.6 hPa Calm   -1607.7 km/h 96 % 0 mm 0 W/m2
03:11 -2.3 °C -2.7 °C 1024.6 hPa North 1.6 km/h -1607.7 km/h 97 % 0 mm 0 W/m2
03:16 -2.3 °C -2.7 °C 1024.6 hPa North 1.6 km/h -1607.7 km/h 97 % 0 mm 0 W/m2
03:21 -2.3 °C -2.7 °C 1024.6 hPa North 1.6 km/h -1607.7 km/h 97 % 0 mm 0 W/m2
03:26 -2.2 °C -2.6 °C 1024.6 hPa Calm   -1607.7 km/h 97 % 0 mm 0 W/m2
03:31 -2.2 °C -2.6 °C 1024.6 hPa Calm   -1607.7 km/h 97 % 0 mm 0 W/m2
03:36 -2.2 °C -2.6 °C 1024.6 hPa Calm   -1607.7 km/h 97 % 0 mm 0 W/m2
03:41 -2.4 °C -2.9 °C 1024.3 hPa Calm   -1607.7 km/h 96 % 0 mm 0 W/m2
03:46 -2.4 °C -2.9 °C 1024.3 hPa Calm   -1607.7 km/h 96 % 0 mm 0 W/m2
03:51 -2.4 °C -2.9 °C 1024.3 hPa Calm   -1607.7 km/h 96 % 0 mm 0 W/m2
03:56 -2.7 °C -3.2 °C 1024.6 hPa Calm   -1607.7 km/h 96 % 0 mm 0 W/m2
04:01 -2.7 °C -3.2 °C 1024.6 hPa Calm   -1607.7 km/h 96 % 0 mm 0 W/m2
04:06 -2.7 °C -3.2 °C 1024.6 hPa Calm   -1607.7 km/h 96 % 0 mm 0 W/m2
04:11 -2.8 °C -3.2 °C 1024.6 hPa Calm   -1607.7 km/h 97 % 0 mm 0 W/m2
04:16 -2.8 °C -3.2 °C 1024.6 hPa Calm   -1607.7 km/h 97 % 0 mm 0 W/m2
04:21 -2.8 °C -3.2 °C 1024.6 hPa Calm   -1607.7 km/h 97 % 0 mm 0 W/m2
04:26 -2.6 °C -2.9 °C 1024.6 hPa Calm   -1607.7 km/h 97 % 0 mm 0 W/m2
04:31 -2.6 °C -2.9 °C 1024.6 hPa Calm   -1607.7 km/h 97 % 0 mm 0 W/m2
04:36 -2.6 °C -2.9 °C 1024.6 hPa Calm   -1607.7 km/h 97 % 0 mm 0 W/m2
04:41 -2.3 °C -2.7 °C 1024.6 hPa Calm   -1607.7 km/h 97 % 0 mm 0 W/m2
04:46 -2.3 °C -2.7 °C 1024.6 hPa Calm   -1607.7 km/h 97 % 0 mm 0 W/m2
04:51 -2.3 °C -2.7 °C 1024.6 hPa Calm   -1607.7 km/h 97 % 0 mm 0 W/m2
04:56 -2.2 °C -2.6 °C 1024.6 hPa Calm   -1607.7 km/h 97 % 0 mm 0 W/m2
05:01 -2.2 °C -2.6 °C 1024.6 hPa Calm   -1607.7 km/h 97 % 0 mm 0 W/m2
05:06 -2.2 °C -2.6 °C 1024.6 hPa Calm   -1607.7 km/h 97 % 0 mm 0 W/m2
05:11 -2 °C -2.4 °C 1024.3 hPa Calm   -1607.7 km/h 97 % 0 mm 0 W/m2
05:16 -2 °C -2.4 °C 1024.3 hPa Calm   -1607.7 km/h 97 % 0 mm 0 W/m2
05:21 -2 °C -2.4 °C 1024.3 hPa Calm   -1607.7 km/h 97 % 0 mm 0 W/m2
05:26 -2 °C -2.4 °C 1024.3 hPa Calm   -1607.7 km/h 97 % 0 mm 0 W/m2
05:31 -2 °C -2.4 °C 1024.3 hPa Calm   -1607.7 km/h 97 % 0 mm 0 W/m2
05:36 -2 °C -2.4 °C 1024.3 hPa Calm   -1607.7 km/h 97 % 0 mm 0 W/m2
05:41 -2.1 °C -2.5 °C 1024.3 hPa Calm   -1607.7 km/h 97 % 0 mm 0 W/m2
05:46 -2.1 °C -2.5 °C 1024.3 hPa Calm   -1607.7 km/h 97 % 0 mm 0 W/m2
05:51 -2.1 °C -2.5 °C 1024.3 hPa Calm   -1607.7 km/h 97 % 0 mm 0 W/m2
05:56 -2.1 °C -2.4 °C 1024.3 hPa Calm   -1607.7 km/h 97 % 0 mm 0 W/m2
06:01 -2.1 °C -2.4 °C 1024.3 hPa Calm   -1607.7 km/h 97 % 0 mm 0 W/m2
06:06 -2.1 °C -2.4 °C 1024.3 hPa Calm   -1607.7 km/h 97 % 0 mm 0 W/m2
06:11 -1.9 °C -2.3 °C 1024.3 hPa Calm   -1607.7 km/h 97 % 0 mm 0 W/m2
06:16 -1.9 °C -2.3 °C 1024.3 hPa Calm   -1607.7 km/h 97 % 0 mm 0 W/m2
06:21 -1.9 °C -2.3 °C 1024.3 hPa Calm   -1607.7 km/h 97 % 0 mm 0 W/m2
06:26 -2 °C -2.4 °C 1024.3 hPa Calm   -1607.7 km/h 97 % 0 mm 0 W/m2
06:31 -2 °C -2.4 °C 1024.3 hPa Calm   -1607.7 km/h 97 % 0 mm 0 W/m2
06:36 -2 °C -2.4 °C 1024.3 hPa Calm   -1607.7 km/h 97 % 0 mm 0 W/m2
06:41 -1.7 °C -2.1 °C 1024.6 hPa Calm   -1607.7 km/h 97 % 0 mm 0 W/m2
06:46 -1.7 °C -2.1 °C 1024.6 hPa Calm   -1607.7 km/h 97 % 0 mm 0 W/m2
06:51 -1.7 °C -2.1 °C 1024.6 hPa Calm   -1607.7 km/h 97 % 0 mm 0 W/m2
06:56 -1.7 °C -2 °C 1024.6 hPa Calm   -1607.7 km/h 98 % 0 mm 0 W/m2
07:01 -1.7 °C -2 °C 1024.6 hPa Calm   -1607.7 km/h 98 % 0 mm 0 W/m2
07:06 -1.7 °C -2 °C 1024.6 hPa Calm   -1607.7 km/h 98 % 0 mm 0 W/m2
07:11 -0.9 °C -1.2 °C 1024.3 hPa Calm   -1607.7 km/h 98 % 0 mm 0 W/m2
07:16 -0.9 °C -1.2 °C 1024.3 hPa Calm   -1607.7 km/h 98 % 0 mm 0 W/m2
07:21 -0.9 °C -1.2 °C 1024.3 hPa Calm   -1607.7 km/h 98 % 0 mm 0 W/m2
07:26 -0.5 °C -0.8 °C 1024.6 hPa Calm   -1607.7 km/h 98 % 0 mm 0 W/m2
07:31 -0.5 °C -0.8 °C 1024.6 hPa Calm   -1607.7 km/h 98 % 0 mm 0 W/m2
07:36 -0.5 °C -0.8 °C 1024.6 hPa Calm   -1607.7 km/h 98 % 0 mm 0 W/m2
07:41 -0.2 °C -0.4 °C 1024.6 hPa Calm   -1607.7 km/h 98 % 0 mm 0 W/m2
07:46 -0.2 °C -0.4 °C 1024.6 hPa Calm   -1607.7 km/h 98 % 0 mm 0 W/m2
07:51 -0.2 °C -0.4 °C 1024.6 hPa Calm   -1607.7 km/h 98 % 0 mm 0 W/m2
07:56 -0.2 °C -0.7 °C 1024.6 hPa Calm   -1607.7 km/h 97 % 0 mm 4 W/m2
08:01 -0.2 °C -0.7 °C 1024.6 hPa Calm   -1607.7 km/h 97 % 0 mm 4 W/m2
08:06 -0.2 °C -0.7 °C 1024.6 hPa Calm   -1607.7 km/h 97 % 0 mm 4 W/m2
08:11 -0.3 °C -0.8 °C 1024.6 hPa Calm   -1607.7 km/h 97 % 0 mm 12 W/m2
08:16 -0.3 °C -0.8 °C 1024.6 hPa Calm   -1607.7 km/h 97 % 0 mm 12 W/m2
08:21 -0.3 °C -0.8 °C 1024.6 hPa Calm   -1607.7 km/h 97 % 0 mm 12 W/m2
08:26 0.1 °C -0.2 °C 1024.9 hPa Calm   -1607.7 km/h 98 % 0 mm 21 W/m2
08:31 0.1 °C -0.2 °C 1024.9 hPa Calm   -1607.7 km/h 98 % 0 mm 21 W/m2
08:36 0.1 °C -0.2 °C 1024.9 hPa Calm   -1607.7 km/h 98 % 0 mm 21 W/m2
08:41 0.4 °C 0.2 °C 1024.9 hPa Calm   -1607.7 km/h 98 % 0 mm 31 W/m2
08:46 0.4 °C 0.2 °C 1024.9 hPa Calm   -1607.7 km/h 98 % 0 mm 31 W/m2
08:51 0.4 °C 0.2 °C 1024.9 hPa Calm   -1607.7 km/h 98 % 0 mm 31 W/m2
08:56 0.6 °C 0.3 °C 1024.9 hPa Calm   -1607.7 km/h 98 % 0 mm 45 W/m2
09:01 0.6 °C 0.3 °C 1024.9 hPa Calm   -1607.7 km/h 98 % 0 mm 45 W/m2
09:06 0.6 °C 0.3 °C 1024.9 hPa Calm   -1607.7 km/h 98 % 0 mm 45 W/m2
09:11 0.8 °C 0.5 °C 1024.9 hPa Calm   -1607.7 km/h 98 % 0 mm 64 W/m2
09:16 0.8 °C 0.5 °C 1024.9 hPa Calm   -1607.7 km/h 98 % 0 mm 64 W/m2
09:21 0.8 °C 0.5 °C 1024.9 hPa Calm   -1607.7 km/h 98 % 0 mm 64 W/m2
09:26 1.3 °C 1.1 °C 1025.3 hPa Calm   -1607.7 km/h 98 % 0 mm 88 W/m2
09:31 1.3 °C 1.1 °C 1025.3 hPa Calm   -1607.7 km/h 98 % 0 mm 88 W/m2
09:36 1.3 °C 1.1 °C 1025.3 hPa Calm   -1607.7 km/h 98 % 0 mm 88 W/m2
09:41 1.8 °C 1.6 °C 1025.3 hPa Calm   -1607.7 km/h 98 % 0 mm 207 W/m2
09:46 1.8 °C 1.6 °C 1025.3 hPa Calm   -1607.7 km/h 98 % 0 mm 207 W/m2
09:51 1.8 °C 1.6 °C 1025.3 hPa Calm   -1607.7 km/h 98 % 0 mm 207 W/m2
09:56 2.6 °C 2.3 °C 1025.3 hPa Calm   -1607.7 km/h 98 % 0.25 mm 141 W/m2
10:01 2.6 °C 2.3 °C 1025.3 hPa Calm   -1607.7 km/h 98 % 0.25 mm 141 W/m2
10:06 2.6 °C 2.3 °C 1025.3 hPa Calm   -1607.7 km/h 98 % 0.25 mm 141 W/m2
10:11 3.1 °C 2.8 °C 1025.3 hPa Calm   -1607.7 km/h 98 % 0.25 mm 190 W/m2
10:16 3.1 °C 2.8 °C 1025.3 hPa Calm   -1607.7 km/h 98 % 0.25 mm 190 W/m2
10:21 3.1 °C 2.8 °C 1025.3 hPa Calm   -1607.7 km/h 98 % 0.25 mm 190 W/m2
10:26 3.4 °C 3.2 °C 1025.3 hPa Calm   -1607.7 km/h 98 % 0.25 mm 277 W/m2
10:31 3.4 °C 3.2 °C 1025.3 hPa Calm   -1607.7 km/h 98 % 0.25 mm 277 W/m2
10:36 3.4 °C 3.2 °C 1025.3 hPa Calm   -1607.7 km/h 98 % 0.25 mm 277 W/m2
10:41 4 °C 3.6 °C 1025.6 hPa Calm   -1607.7 km/h 97 % 0.25 mm 175 W/m2
10:46 4 °C 3.6 °C 1025.6 hPa Calm   -1607.7 km/h 97 % 0.25 mm 175 W/m2
10:51 4 °C 3.6 °C 1025.6 hPa Calm   -1607.7 km/h 97 % 0.25 mm 175 W/m2
10:56 4.6 °C 4.1 °C 1025.6 hPa Calm   -1607.7 km/h 97 % 0 mm 164 W/m2
11:01 4.6 °C 4.1 °C 1025.6 hPa Calm   -1607.7 km/h 97 % 0 mm 164 W/m2
11:06 4.6 °C 4.1 °C 1025.6 hPa Calm   -1607.7 km/h 97 % 0 mm 164 W/m2
11:11 5.3 °C 4.8 °C 1025.6 hPa Calm   -1607.7 km/h 97 % 0 mm 291 W/m2
11:16 5.3 °C 4.8 °C 1025.6 hPa Calm   -1607.7 km/h 97 % 0 mm 291 W/m2
11:21 5.3 °C 4.8 °C 1025.6 hPa Calm   -1607.7 km/h 97 % 0 mm 291 W/m2
11:26 5.8 °C 5.1 °C 1025.6 hPa Calm   -1607.7 km/h 95 % 0 mm 143 W/m2
11:31 5.8 °C 5.1 °C 1025.6 hPa Calm   -1607.7 km/h 95 % 0 mm 143 W/m2
11:36 5.8 °C 5.1 °C 1025.6 hPa Calm   -1607.7 km/h 95 % 0 mm 143 W/m2
11:41 6 °C 5.1 °C 1025.3 hPa WSW 1.6 km/h -1607.7 km/h 94 % 0 mm 297 W/m2
11:46 6 °C 5.1 °C 1025.3 hPa WSW 1.6 km/h -1607.7 km/h 94 % 0 mm 297 W/m2
11:51 6 °C 5.1 °C 1025.3 hPa WSW 1.6 km/h -1607.7 km/h 94 % 0 mm 297 W/m2
11:56 6.7 °C 5.3 °C 1025.3 hPa SW 1.6 km/h -1607.7 km/h 91 % 0 mm 323 W/m2
12:01 6.7 °C 5.3 °C 1025.3 hPa SW 1.6 km/h -1607.7 km/h 91 % 0 mm 323 W/m2
12:06 6.7 °C 5.3 °C 1025.3 hPa SW 1.6 km/h -1607.7 km/h 91 % 0 mm 323 W/m2
12:11 7.4 °C 5.6 °C 1025.3 hPa SW 1.6 km/h -1607.7 km/h 88 % 0 mm 317 W/m2
12:16 7.4 °C 5.6 °C 1025.3 hPa SW 1.6 km/h -1607.7 km/h 88 % 0 mm 317 W/m2
12:21 7.4 °C 5.6 °C 1025.3 hPa SW 1.6 km/h -1607.7 km/h 88 % 0 mm 317 W/m2
12:26 8.2 °C 5.8 °C 1025.3 hPa SW 4.8 km/h -1607.7 km/h 85 % 0 mm 329 W/m2
12:31 8.2 °C 5.8 °C 1025.3 hPa SW 4.8 km/h -1607.7 km/h 85 % 0 mm 329 W/m2
12:36 8.2 °C 5.8 °C 1025.3 hPa SW 4.8 km/h -1607.7 km/h 85 % 0 mm 329 W/m2
12:41 8.8 °C 6.1 °C 1024.9 hPa SSW 9.7 km/h -1607.7 km/h 83 % 0 mm 360 W/m2
12:46 8.8 °C 6.1 °C 1024.9 hPa SSW 9.7 km/h -1607.7 km/h 83 % 0 mm 360 W/m2
12:51 8.8 °C 6.1 °C 1024.9 hPa SSW 9.7 km/h -1607.7 km/h 83 % 0 mm 360 W/m2
12:56 9.2 °C 6.1 °C 1024.9 hPa SW 9.7 km/h -1607.7 km/h 81 % 0 mm 292 W/m2
13:01 9.2 °C 6.1 °C 1024.9 hPa SW 9.7 km/h -1607.7 km/h 81 % 0 mm 292 W/m2
13:06 9.2 °C 6.1 °C 1024.9 hPa SW 9.7 km/h -1607.7 km/h 81 % 0 mm 292 W/m2
13:11 9.1 °C 6.2 °C 1024.6 hPa SW 9.7 km/h -1607.7 km/h 82 % 0 mm 238 W/m2
13:16 9.1 °C 6.2 °C 1024.6 hPa SW 9.7 km/h -1607.7 km/h 82 % 0 mm 238 W/m2
13:21 9.1 °C 6.2 °C 1024.6 hPa SW 9.7 km/h -1607.7 km/h 82 % 0 mm 238 W/m2
13:26 9 °C 6.1 °C 1024.6 hPa SW 9.7 km/h -1607.7 km/h 82 % 0 mm 171 W/m2
13:31 9 °C 6.1 °C 1024.6 hPa SW 9.7 km/h -1607.7 km/h 82 % 0 mm 171 W/m2
13:36 9 °C 6.1 °C 1024.6 hPa SW 9.7 km/h -1607.7 km/h 82 % 0 mm 171 W/m2
13:41 8.8 °C 6.1 °C 1024.6 hPa SW 9.7 km/h -1607.7 km/h 83 % 0 mm 161 W/m2
13:46 8.8 °C 6.1 °C 1024.6 hPa SW 9.7 km/h -1607.7 km/h 83 % 0 mm 161 W/m2
13:51 8.8 °C 6.1 °C 1024.6 hPa SW 9.7 km/h -1607.7 km/h 83 % 0 mm 161 W/m2
13:56 8.7 °C 5.9 °C 1024.3 hPa SW 4.8 km/h -1607.7 km/h 83 % 0 mm 164 W/m2
14:01 8.7 °C 5.9 °C 1024.3 hPa SW 4.8 km/h -1607.7 km/h 83 % 0 mm 164 W/m2
14:06 8.7 °C 5.9 °C 1024.3 hPa SW 4.8 km/h -1607.7 km/h 83 % 0 mm 164 W/m2
14:11 8.8 °C 6.1 °C 1024.3 hPa SSW 3.2 km/h -1607.7 km/h 83 % 0 mm 157 W/m2
14:16 8.8 °C 6.1 °C 1024.3 hPa SSW 3.2 km/h -1607.7 km/h 83 % 0 mm 157 W/m2
14:21 8.8 °C 6.1 °C 1024.3 hPa SSW 3.2 km/h -1607.7 km/h 83 % 0 mm 157 W/m2
14:26 8.9 °C 6.2 °C 1024.3 hPa WSW 3.2 km/h -1607.7 km/h 83 % 0 mm 162 W/m2
14:31 8.9 °C 6.2 °C 1024.3 hPa WSW 3.2 km/h -1607.7 km/h 83 % 0 mm 162 W/m2
14:36 8.9 °C 6.2 °C 1024.3 hPa WSW 3.2 km/h -1607.7 km/h 83 % 0 mm 162 W/m2
14:41 9.1 °C 6.3 °C 1024.3 hPa SW 4.8 km/h -1607.7 km/h 83 % 0 mm 150 W/m2
14:46 9.1 °C 6.3 °C 1024.3 hPa SW 4.8 km/h -1607.7 km/h 83 % 0 mm 150 W/m2
14:51 9.1 °C 6.3 °C 1024.3 hPa SW 4.8 km/h -1607.7 km/h 83 % 0 mm 150 W/m2
14:56 8.9 °C 6.2 °C 1024.3 hPa WSW 6.4 km/h -1607.7 km/h 83 % 0 mm 100 W/m2
15:01 8.9 °C 6.2 °C 1024.3 hPa WSW 6.4 km/h -1607.7 km/h 83 % 0 mm 100 W/m2
15:06 8.9 °C 6.2 °C 1024.3 hPa WSW 6.4 km/h -1607.7 km/h 83 % 0 mm 100 W/m2
15:11 8.7 °C 6.2 °C 1024.6 hPa WSW 6.4 km/h -1607.7 km/h 84 % 0 mm 84 W/m2
15:16 8.7 °C 6.2 °C 1024.6 hPa WSW 6.4 km/h -1607.7 km/h 84 % 0 mm 84 W/m2
15:21 8.7 °C 6.2 °C 1024.6 hPa WSW 6.4 km/h -1607.7 km/h 84 % 0 mm 84 W/m2
15:26 8.6 °C 6 °C 1024.6 hPa WSW 1.6 km/h -1607.7 km/h 84 % 0 mm 68 W/m2
15:31 8.6 °C 6 °C 1024.6 hPa WSW 1.6 km/h -1607.7 km/h 84 % 0 mm 68 W/m2
15:36 8.6 °C 6 °C 1024.6 hPa WSW 1.6 km/h -1607.7 km/h 84 % 0 mm 68 W/m2
15:41 8.4 °C 6 °C 1024.6 hPa SSW 1.6 km/h -1607.7 km/h 85 % 0 mm 44 W/m2
15:46 8.4 °C 6 °C 1024.6 hPa SSW 1.6 km/h -1607.7 km/h 85 % 0 mm 44 W/m2
15:51 8.4 °C 6 °C 1024.6 hPa SSW 1.6 km/h -1607.7 km/h 85 % 0 mm 44 W/m2
15:56 8.1 °C 5.9 °C 1024.6 hPa SW 1.6 km/h -1607.7 km/h 86 % 0 mm 29 W/m2
16:01 8.1 °C 5.9 °C 1024.6 hPa SW 1.6 km/h -1607.7 km/h 86 % 0 mm 29 W/m2
16:06 8.1 °C 5.9 °C 1024.6 hPa SW 1.6 km/h -1607.7 km/h 86 % 0 mm 29 W/m2
16:11 7.8 °C 5.8 °C 1024.6 hPa SE 1.6 km/h -1607.7 km/h 87 % 0 mm 17 W/m2
16:16 7.8 °C 5.8 °C 1024.6 hPa SE 1.6 km/h -1607.7 km/h 87 % 0 mm 17 W/m2
16:21 7.8 °C 5.8 °C 1024.6 hPa SE 1.6 km/h -1607.7 km/h 87 % 0 mm 17 W/m2
16:26 7.5 °C 5.7 °C 1024.6 hPa SSE 1.6 km/h -1607.7 km/h 88 % 0 mm 8 W/m2
16:31 7.5 °C 5.7 °C 1024.6 hPa SSE 1.6 km/h -1607.7 km/h 88 % 0 mm 8 W/m2
16:36 7.5 °C 5.7 °C 1024.6 hPa SSE 1.6 km/h -1607.7 km/h 88 % 0 mm 8 W/m2
16:41 7.3 °C 5.4 °C 1024.6 hPa South 3.2 km/h -1607.7 km/h 88 % 0 mm 0 W/m2
16:46 7.3 °C 5.4 °C 1024.6 hPa South 3.2 km/h -1607.7 km/h 88 % 0 mm 0 W/m2
16:51 7.3 °C 5.4 °C 1024.6 hPa South 3.2 km/h -1607.7 km/h 88 % 0 mm 0 W/m2
16:56 7.1 °C 5.3 °C 1024.9 hPa Calm   -1607.7 km/h 88 % 0 mm 0 W/m2
17:01 7.1 °C 5.3 °C 1024.9 hPa Calm   -1607.7 km/h 88 % 0 mm 0 W/m2
17:06 7.1 °C 5.3 °C 1024.9 hPa Calm   -1607.7 km/h 88 % 0 mm 0 W/m2
17:11 6.9 °C 5.2 °C 1024.9 hPa WSW 1.6 km/h -1607.7 km/h 89 % 0 mm 0 W/m2
17:16 6.9 °C 5.2 °C 1024.9 hPa WSW 1.6 km/h -1607.7 km/h 89 % 0 mm 0 W/m2
17:21 6.9 °C 5.2 °C 1024.9 hPa WSW 1.6 km/h -1607.7 km/h 89 % 0 mm 0 W/m2
17:26 6.8 °C 5.3 °C 1024.6 hPa SW 3.2 km/h -1607.7 km/h 90 % 0 mm 0 W/m2
17:31 6.8 °C 5.3 °C 1024.6 hPa SW 3.2 km/h -1607.7 km/h 90 % 0 mm 0 W/m2
17:36 6.8 °C 5.3 °C 1024.6 hPa SW 3.2 km/h -1607.7 km/h 90 % 0 mm 0 W/m2
17:41 6.6 °C 5.1 °C 1024.9 hPa Calm   -1607.7 km/h 90 % 0 mm 0 W/m2
17:46 6.6 °C 5.1 °C 1024.9 hPa Calm   -1607.7 km/h 90 % 0 mm 0 W/m2
17:51 6.6 °C 5.1 °C 1024.9 hPa Calm   -1607.7 km/h 90 % 0 mm 0 W/m2
17:56 6.2 °C 4.7 °C 1024.9 hPa Calm   -1607.7 km/h 90 % 0 mm 0 W/m2
18:01 6.2 °C 4.7 °C 1024.9 hPa Calm   -1607.7 km/h 90 % 0 mm 0 W/m2
18:06 6.2 °C 4.7 °C 1024.9 hPa Calm   -1607.7 km/h 90 % 0 mm 0 W/m2
18:11 5.8 °C 4.4 °C 1024.9 hPa Calm   -1607.7 km/h 91 % 0 mm 0 W/m2
18:16 5.8 °C 4.4 °C 1024.9 hPa Calm   -1607.7 km/h 91 % 0 mm 0 W/m2
18:21 5.8 °C 4.4 °C 1024.9 hPa Calm   -1607.7 km/h 91 % 0 mm 0 W/m2
18:26 5.4 °C 4.2 °C 1024.9 hPa Calm   -1607.7 km/h 92 % 0 mm 0 W/m2
18:31 5.4 °C 4.2 °C 1024.9 hPa Calm   -1607.7 km/h 92 % 0 mm 0 W/m2
18:36 5.4 °C 4.2 °C 1024.9 hPa Calm   -1607.7 km/h 92 % 0 mm 0 W/m2
18:41 5.1 °C 4.1 °C 1024.9 hPa ESE 1.6 km/h -1607.7 km/h 93 % 0 mm 0 W/m2
18:46 5.1 °C 4.1 °C 1024.9 hPa ESE 1.6 km/h -1607.7 km/h 93 % 0 mm 0 W/m2
18:51 5.1 °C 4.1 °C 1024.9 hPa ESE 1.6 km/h -1607.7 km/h 93 % 0 mm 0 W/m2
18:56 4.9 °C 3.9 °C 1024.9 hPa Calm   -1607.7 km/h 93 % 0 mm 0 W/m2
19:01 4.9 °C 3.9 °C 1024.9 hPa Calm   -1607.7 km/h 93 % 0 mm 0 W/m2
19:06 4.9 °C 3.9 °C 1024.9 hPa Calm   -1607.7 km/h 93 % 0 mm 0 W/m2
19:11 4.7 °C 3.6 °C 1024.9 hPa Calm   -1607.7 km/h 93 % 0 mm 0 W/m2
19:16 4.7 °C 3.6 °C 1024.9 hPa Calm   -1607.7 km/h 93 % 0 mm 0 W/m2
19:21 4.7 °C 3.6 °C 1024.9 hPa Calm   -1607.7 km/h 93 % 0 mm 0 W/m2
19:26 4.7 °C 3.8 °C 1025.3 hPa Calm   -1607.7 km/h 94 % 0 mm 0 W/m2
19:31 4.7 °C 3.8 °C 1025.3 hPa Calm   -1607.7 km/h 94 % 0 mm 0 W/m2
19:36 4.7 °C 3.8 °C 1025.3 hPa Calm   -1607.7 km/h 94 % 0 mm 0 W/m2
19:41 4.7 °C 3.8 °C 1025.3 hPa Calm   -1607.7 km/h 94 % 0 mm 0 W/m2
19:46 4.7 °C 3.8 °C 1025.3 hPa Calm   -1607.7 km/h 94 % 0 mm 0 W/m2
19:51 4.7 °C 3.8 °C 1025.3 hPa Calm   -1607.7 km/h 94 % 0 mm 0 W/m2
19:56 4.4 °C 3.6 °C 1025.3 hPa Calm   -1607.7 km/h 94 % 0 mm 0 W/m2
20:01 4.4 °C 3.6 °C 1025.3 hPa Calm   -1607.7 km/h 94 % 0 mm 0 W/m2
20:06 4.4 °C 3.6 °C 1025.3 hPa Calm   -1607.7 km/h 94 % 0 mm 0 W/m2
20:11 4.1 °C 3.4 °C 1024.9 hPa Calm   -1607.7 km/h 95 % 0 mm 0 W/m2
20:16 4.1 °C 3.4 °C 1024.9 hPa Calm   -1607.7 km/h 95 % 0 mm 0 W/m2
20:21 4.1 °C 3.4 °C 1024.9 hPa Calm   -1607.7 km/h 95 % 0 mm 0 W/m2
20:26 4.2 °C 3.5 °C 1024.9 hPa Calm   -1607.7 km/h 95 % 0 mm 0 W/m2
20:31 4.2 °C 3.5 °C 1024.9 hPa Calm   -1607.7 km/h 95 % 0 mm 0 W/m2
20:36 4.2 °C 3.5 °C 1024.9 hPa Calm   -1607.7 km/h 95 % 0 mm 0 W/m2
20:41 4.4 °C 3.7 °C 1024.9 hPa Calm   -1607.7 km/h 95 % 0 mm 0 W/m2
20:46 4.4 °C 3.7 °C 1024.9 hPa Calm   -1607.7 km/h 95 % 0 mm 0 W/m2
20:51 4.4 °C 3.7 °C 1024.9 hPa Calm   -1607.7 km/h 95 % 0 mm 0 W/m2
20:56 4.3 °C 3.6 °C 1025.3 hPa SE 1.6 km/h -1607.7 km/h 95 % 0 mm 0 W/m2
21:01 4.3 °C 3.6 °C 1025.3 hPa SE 1.6 km/h -1607.7 km/h 95 % 0 mm 0 W/m2
21:06 4.3 °C 3.6 °C 1025.3 hPa SE 1.6 km/h -1607.7 km/h 95 % 0 mm 0 W/m2
21:11 4.4 °C 3.7 °C 1024.9 hPa SW 1.6 km/h -1607.7 km/h 95 % 0 mm 0 W/m2
21:16 4.4 °C 3.7 °C 1024.9 hPa SW 1.6 km/h -1607.7 km/h 95 % 0 mm 0 W/m2
21:21 4.4 °C 3.7 °C 1024.9 hPa SW 1.6 km/h -1607.7 km/h 95 % 0 mm 0 W/m2
21:26 4.4 °C 3.7 °C 1024.9 hPa Calm   -1607.7 km/h 95 % 0 mm 0 W/m2
21:31 4.4 °C 3.7 °C 1024.9 hPa Calm   -1607.7 km/h 95 % 0 mm 0 W/m2
21:36 4.4 °C 3.7 °C 1024.9 hPa Calm   -1607.7 km/h 95 % 0 mm 0 W/m2
21:41 4.2 °C 3.4 °C 1024.9 hPa Calm   -1607.7 km/h 95 % 0 mm 0 W/m2
21:46 4.2 °C 3.4 °C 1024.9 hPa Calm   -1607.7 km/h 95 % 0 mm 0 W/m2
21:51 4.2 °C 3.4 °C 1024.9 hPa Calm   -1607.7 km/h 95 % 0 mm 0 W/m2
21:56 4.1 °C 3.5 °C 1024.9 hPa Calm   -1607.7 km/h 96 % 0 mm 0 W/m2
22:01 4.1 °C 3.5 °C 1024.9 hPa Calm   -1607.7 km/h 96 % 0 mm 0 W/m2
22:06 4.1 °C 3.5 °C 1024.9 hPa Calm   -1607.7 km/h 96 % 0 mm 0 W/m2
22:11 4.2 °C 3.6 °C 1024.9 hPa NNE 1.6 km/h -1607.7 km/h 96 % 0 mm 0 W/m2
22:16 4.2 °C 3.6 °C 1024.9 hPa NNE 1.6 km/h -1607.7 km/h 96 % 0 mm 0 W/m2
22:21 4.2 °C 3.6 °C 1024.9 hPa NNE 1.6 km/h -1607.7 km/h 96 % 0 mm 0 W/m2
22:26 4.3 °C 3.8 °C 1024.9 hPa ESE 3.2 km/h -1607.7 km/h 96 % 0 mm 0 W/m2
22:31 4.3 °C 3.8 °C 1024.9 hPa ESE 3.2 km/h -1607.7 km/h 96 % 0 mm 0 W/m2
22:36 4.3 °C 3.8 °C 1024.9 hPa ESE 3.2 km/h -1607.7 km/h 96 % 0 mm 0 W/m2
22:41 4.7 °C 4.1 °C 1024.9 hPa SE 3.2 km/h -1607.7 km/h 96 % 0 mm 0 W/m2
22:46 4.7 °C 4.1 °C 1024.9 hPa SE 3.2 km/h -1607.7 km/h 96 % 0 mm 0 W/m2
22:51 4.7 °C 4.1 °C 1024.9 hPa SE 3.2 km/h -1607.7 km/h 96 % 0 mm 0 W/m2
22:56 4.7 °C 4 °C 1024.9 hPa Calm   -1607.7 km/h 95 % 0 mm 0 W/m2
23:01 4.7 °C 4 °C 1024.9 hPa Calm   -1607.7 km/h 95 % 0 mm 0 W/m2
23:06 4.7 °C 4 °C 1024.9 hPa Calm   -1607.7 km/h 95 % 0 mm 0 W/m2
23:11 4.6 °C 4 °C 1024.9 hPa SSE 1.6 km/h -1607.7 km/h 96 % 0 mm 0 W/m2
23:16 4.6 °C 4 °C 1024.9 hPa SSE 1.6 km/h -1607.7 km/h 96 % 0 mm 0 W/m2
23:21 4.6 °C 4 °C 1024.9 hPa SSE 1.6 km/h -1607.7 km/h 96 % 0 mm 0 W/m2
23:26 4.7 °C 4.1 °C 1024.9 hPa South 6.4 km/h -1607.7 km/h 96 % 0 mm 0 W/m2
23:31 4.7 °C 4.1 °C 1024.9 hPa South 6.4 km/h -1607.7 km/h 96 % 0 mm 0 W/m2
23:36 4.7 °C 4.1 °C 1024.9 hPa South 6.4 km/h -1607.7 km/h 96 % 0 mm 0 W/m2
23:41 5 °C 4.3 °C 1024.9 hPa South 4.8 km/h -1607.7 km/h 95 % 0 mm 0 W/m2
23:46 5 °C 4.3 °C 1024.9 hPa South 4.8 km/h -1607.7 km/h 95 % 0 mm 0 W/m2
23:51 5 °C 4.3 °C 1024.9 hPa South 4.8 km/h -1607.7 km/h 95 % 0 mm 0 W/m2
23:56 5 °C 4.3 °C 1024.6 hPa SSE 3.2 km/h -1607.7 km/h 95 % 0 mm 0 W/m2
Delerius-Weather
Compliments of Weather Underground - 2.25 mb

Data updates at regular intervals.